sensor_id;sensor_type;location;lat;lon;timestamp;P1;durP1;ratioP1;P2;durP2;ratioP2
12296;SDS011;6211;49.124;9.152;2024-03-02T00:00:02;14.77;;;8.45;;
12296;SDS011;6211;49.124;9.152;2024-03-02T00:02:39;10.93;;;7.30;;
12296;SDS011;6211;49.124;9.152;2024-03-02T00:05:06;15.50;;;9.43;;
12296;SDS011;6211;49.124;9.152;2024-03-02T00:07:35;10.00;;;7.80;;
12296;SDS011;6211;49.124;9.152;2024-03-02T00:10:03;12.63;;;7.55;;
12296;SDS011;6211;49.124;9.152;2024-03-02T00:12:35;11.60;;;7.50;;
12296;SDS011;6211;49.124;9.152;2024-03-02T00:15:04;10.15;;;7.00;;
12296;SDS011;6211;49.124;9.152;2024-03-02T00:17:31;12.68;;;8.27;;
12296;SDS011;6211;49.124;9.152;2024-03-02T00:19:58;14.80;;;8.45;;
12296;SDS011;6211;49.124;9.152;2024-03-02T00:22:27;12.52;;;7.65;;
12296;SDS011;6211;49.124;9.152;2024-03-02T00:24:56;12.80;;;7.30;;
12296;SDS011;6211;49.124;9.152;2024-03-02T00:27:24;10.82;;;8.23;;
12296;SDS011;6211;49.124;9.152;2024-03-02T00:29:52;13.32;;;7.57;;
12296;SDS011;6211;49.124;9.152;2024-03-02T00:32:19;13.95;;;7.38;;
12296;SDS011;6211;49.124;9.152;2024-03-02T00:34:46;14.02;;;7.85;;
12296;SDS011;6211;49.124;9.152;2024-03-02T00:37:13;14.18;;;7.65;;
12296;SDS011;6211;49.124;9.152;2024-03-02T00:39:41;13.40;;;7.88;;
12296;SDS011;6211;49.124;9.152;2024-03-02T00:42:09;11.48;;;7.68;;
12296;SDS011;6211;49.124;9.152;2024-03-02T00:44:37;11.65;;;7.15;;
12296;SDS011;6211;49.124;9.152;2024-03-02T00:47:05;9.98;;;6.65;;
12296;SDS011;6211;49.124;9.152;2024-03-02T00:49:32;12.40;;;7.50;;
12296;SDS011;6211;49.124;9.152;2024-03-02T00:51:59;9.40;;;6.85;;
12296;SDS011;6211;49.124;9.152;2024-03-02T00:54:26;12.30;;;7.97;;
12296;SDS011;6211;49.124;9.152;2024-03-02T00:56:54;12.85;;;8.95;;
12296;SDS011;6211;49.124;9.152;2024-03-02T00:59:23;14.15;;;7.57;;
12296;SDS011;6211;49.124;9.152;2024-03-02T01:01:50;11.32;;;8.05;;
12296;SDS011;6211;49.124;9.152;2024-03-02T01:04:17;12.15;;;7.75;;
12296;SDS011;6211;49.124;9.152;2024-03-02T01:06:44;10.93;;;7.25;;
12296;SDS011;6211;49.124;9.152;2024-03-02T01:09:11;11.23;;;6.60;;
12296;SDS011;6211;49.124;9.152;2024-03-02T01:11:39;10.82;;;6.65;;
12296;SDS011;6211;49.124;9.152;2024-03-02T01:14:06;13.93;;;7.60;;
12296;SDS011;6211;49.124;9.152;2024-03-02T01:16:34;11.48;;;6.90;;
12296;SDS011;6211;49.124;9.152;2024-03-02T01:19:01;12.68;;;7.82;;
12296;SDS011;6211;49.124;9.152;2024-03-02T01:21:28;14.02;;;8.13;;
12296;SDS011;6211;49.124;9.152;2024-03-02T01:23:56;12.95;;;7.65;;
12296;SDS011;6211;49.124;9.152;2024-03-02T01:26:23;9.93;;;7.30;;
12296;SDS011;6211;49.124;9.152;2024-03-02T01:28:50;10.35;;;7.13;;
12296;SDS011;6211;49.124;9.152;2024-03-02T01:31:17;10.75;;;6.72;;
12296;SDS011;6211;49.124;9.152;2024-03-02T01:33:46;12.38;;;7.57;;
12296;SDS011;6211;49.124;9.152;2024-03-02T01:36:13;10.95;;;6.47;;
12296;SDS011;6211;49.124;9.152;2024-03-02T01:38:40;11.57;;;6.90;;
12296;SDS011;6211;49.124;9.152;2024-03-02T01:41:07;12.93;;;7.78;;
12296;SDS011;6211;49.124;9.152;2024-03-02T01:43:34;9.55;;;6.38;;
12296;SDS011;6211;49.124;9.152;2024-03-02T01:46:01;8.60;;;6.63;;
12296;SDS011;6211;49.124;9.152;2024-03-02T01:48:28;9.10;;;6.65;;
12296;SDS011;6211;49.124;9.152;2024-03-02T01:50:57;10.10;;;6.78;;
12296;SDS011;6211;49.124;9.152;2024-03-02T01:53:24;10.80;;;7.10;;
12296;SDS011;6211;49.124;9.152;2024-03-02T01:55:51;11.82;;;6.32;;
12296;SDS011;6211;49.124;9.152;2024-03-02T01:58:19;10.18;;;6.15;;
12296;SDS011;6211;49.124;9.152;2024-03-02T02:00:46;8.40;;;6.15;;
12296;SDS011;6211;49.124;9.152;2024-03-02T02:03:15;11.52;;;7.28;;
12296;SDS011;6211;49.124;9.152;2024-03-02T02:05:42;12.45;;;7.40;;
12296;SDS011;6211;49.124;9.152;2024-03-02T02:08:11;12.80;;;7.10;;
12296;SDS011;6211;49.124;9.152;2024-03-02T02:10:38;11.10;;;5.93;;
12296;SDS011;6211;49.124;9.152;2024-03-02T02:13:05;11.85;;;7.00;;
12296;SDS011;6211;49.124;9.152;2024-03-02T02:15:33;10.63;;;7.03;;
12296;SDS011;6211;49.124;9.152;2024-03-02T02:18:01;10.65;;;6.50;;
12296;SDS011;6211;49.124;9.152;2024-03-02T02:20:29;10.10;;;6.05;;
12296;SDS011;6211;49.124;9.152;2024-03-02T02:22:57;11.98;;;6.78;;
12296;SDS011;6211;49.124;9.152;2024-03-02T02:25:25;13.10;;;6.93;;
12296;SDS011;6211;49.124;9.152;2024-03-02T02:27:52;12.02;;;6.80;;
12296;SDS011;6211;49.124;9.152;2024-03-02T02:30:20;11.45;;;7.60;;
12296;SDS011;6211;49.124;9.152;2024-03-02T02:32:47;13.02;;;7.93;;
12296;SDS011;6211;49.124;9.152;2024-03-02T02:35:14;11.82;;;7.63;;
12296;SDS011;6211;49.124;9.152;2024-03-02T02:37:41;11.77;;;6.80;;
12296;SDS011;6211;49.124;9.152;2024-03-02T02:40:11;11.57;;;6.78;;
12296;SDS011;6211;49.124;9.152;2024-03-02T02:42:38;11.60;;;6.75;;
12296;SDS011;6211;49.124;9.152;2024-03-02T02:45:06;10.57;;;6.90;;
12296;SDS011;6211;49.124;9.152;2024-03-02T02:47:33;12.70;;;6.85;;
12296;SDS011;6211;49.124;9.152;2024-03-02T02:50:01;10.18;;;6.10;;
12296;SDS011;6211;49.124;9.152;2024-03-02T02:52:32;11.73;;;6.50;;
12296;SDS011;6211;49.124;9.152;2024-03-02T02:55:01;11.65;;;6.35;;
12296;SDS011;6211;49.124;9.152;2024-03-02T02:57:30;11.73;;;6.78;;
12296;SDS011;6211;49.124;9.152;2024-03-02T03:00:00;10.43;;;6.25;;
12296;SDS011;6211;49.124;9.152;2024-03-02T03:02:29;14.30;;;7.47;;
12296;SDS011;6211;49.124;9.152;2024-03-02T03:04:56;11.55;;;6.43;;
12296;SDS011;6211;49.124;9.152;2024-03-02T03:07:23;10.52;;;6.80;;
12296;SDS011;6211;49.124;9.152;2024-03-02T03:09:50;11.57;;;6.57;;
12296;SDS011;6211;49.124;9.152;2024-03-02T03:12:17;9.40;;;6.72;;
12296;SDS011;6211;49.124;9.152;2024-03-02T03:14:46;11.23;;;6.55;;
12296;SDS011;6211;49.124;9.152;2024-03-02T03:17:13;12.13;;;6.93;;
12296;SDS011;6211;49.124;9.152;2024-03-02T03:19:40;12.82;;;7.53;;
12296;SDS011;6211;49.124;9.152;2024-03-02T03:22:07;10.15;;;6.63;;
12296;SDS011;6211;49.124;9.152;2024-03-02T03:24:34;12.55;;;7.97;;
12296;SDS011;6211;49.124;9.152;2024-03-02T03:27:01;8.93;;;6.43;;
12296;SDS011;6211;49.124;9.152;2024-03-02T03:29:28;9.52;;;6.40;;
12296;SDS011;6211;49.124;9.152;2024-03-02T03:31:57;11.57;;;6.13;;
12296;SDS011;6211;49.124;9.152;2024-03-02T03:34:24;11.90;;;6.45;;
12296;SDS011;6211;49.124;9.152;2024-03-02T03:36:52;14.70;;;7.70;;
12296;SDS011;6211;49.124;9.152;2024-03-02T03:39:19;11.23;;;7.32;;
12296;SDS011;6211;49.124;9.152;2024-03-02T03:41:46;15.88;;;8.35;;
12296;SDS011;6211;49.124;9.152;2024-03-02T03:44:13;11.85;;;7.25;;
12296;SDS011;6211;49.124;9.152;2024-03-02T03:46:40;12.20;;;6.70;;
12296;SDS011;6211;49.124;9.152;2024-03-02T03:49:09;12.90;;;7.30;;
12296;SDS011;6211;49.124;9.152;2024-03-02T03:51:36;12.38;;;7.10;;
12296;SDS011;6211;49.124;9.152;2024-03-02T03:54:03;12.18;;;7.70;;
12296;SDS011;6211;49.124;9.152;2024-03-02T03:56:30;12.70;;;6.93;;
12296;SDS011;6211;49.124;9.152;2024-03-02T03:58:57;11.80;;;6.88;;
12296;SDS011;6211;49.124;9.152;2024-03-02T04:01:25;12.68;;;6.80;;
12296;SDS011;6211;49.124;9.152;2024-03-02T04:03:52;10.75;;;6.55;;
12296;SDS011;6211;49.124;9.152;2024-03-02T04:06:20;11.30;;;7.40;;
12296;SDS011;6211;49.124;9.152;2024-03-02T04:08:47;13.30;;;7.72;;
12296;SDS011;6211;49.124;9.152;2024-03-02T04:11:14;10.82;;;6.85;;
12296;SDS011;6211;49.124;9.152;2024-03-02T04:13:41;15.93;;;6.90;;
12296;SDS011;6211;49.124;9.152;2024-03-02T04:16:09;12.40;;;8.13;;
12296;SDS011;6211;49.124;9.152;2024-03-02T04:18:37;9.05;;;6.57;;
12296;SDS011;6211;49.124;9.152;2024-03-02T04:21:04;12.70;;;7.80;;
12296;SDS011;6211;49.124;9.152;2024-03-02T04:23:33;12.57;;;7.82;;
12296;SDS011;6211;49.124;9.152;2024-03-02T04:26:00;14.20;;;7.75;;
12296;SDS011;6211;49.124;9.152;2024-03-02T04:28:27;9.57;;;6.78;;
12296;SDS011;6211;49.124;9.152;2024-03-02T04:30:54;13.57;;;8.18;;
12296;SDS011;6211;49.124;9.152;2024-03-02T04:33:21;12.60;;;6.78;;
12296;SDS011;6211;49.124;9.152;2024-03-02T04:35:48;12.90;;;7.78;;
12296;SDS011;6211;49.124;9.152;2024-03-02T04:38:15;10.80;;;6.57;;
12296;SDS011;6211;49.124;9.152;2024-03-02T04:40:44;11.95;;;7.38;;
12296;SDS011;6211;49.124;9.152;2024-03-02T04:43:11;14.85;;;7.85;;
12296;SDS011;6211;49.124;9.152;2024-03-02T04:45:41;13.40;;;7.35;;
12296;SDS011;6211;49.124;9.152;2024-03-02T04:48:08;13.98;;;7.20;;
12296;SDS011;6211;49.124;9.152;2024-03-02T04:50:35;9.45;;;6.82;;
12296;SDS011;6211;49.124;9.152;2024-03-02T04:53:03;16.15;;;7.93;;
12296;SDS011;6211;49.124;9.152;2024-03-02T04:55:30;15.15;;;7.68;;
12296;SDS011;6211;49.124;9.152;2024-03-02T04:58:12;14.40;;;7.07;;
12296;SDS011;6211;49.124;9.152;2024-03-02T05:00:39;13.77;;;7.85;;
12296;SDS011;6211;49.124;9.152;2024-03-02T05:03:08;9.98;;;6.50;;
12296;SDS011;6211;49.124;9.152;2024-03-02T05:05:35;10.25;;;6.97;;
12296;SDS011;6211;49.124;9.152;2024-03-02T05:08:03;11.27;;;7.32;;
12296;SDS011;6211;49.124;9.152;2024-03-02T05:10:31;12.00;;;7.15;;
12296;SDS011;6211;49.124;9.152;2024-03-02T05:12:58;14.15;;;7.43;;
12296;SDS011;6211;49.124;9.152;2024-03-02T05:15:26;14.52;;;7.55;;
12296;SDS011;6211;49.124;9.152;2024-03-02T05:17:53;12.73;;;6.70;;
12296;SDS011;6211;49.124;9.152;2024-03-02T05:20:21;12.55;;;7.57;;
12296;SDS011;6211;49.124;9.152;2024-03-02T05:22:49;15.65;;;7.78;;
12296;SDS011;6211;49.124;9.152;2024-03-02T05:25:16;15.80;;;6.88;;
12296;SDS011;6211;49.124;9.152;2024-03-02T05:27:43;13.82;;;7.53;;
12296;SDS011;6211;49.124;9.152;2024-03-02T05:30:11;9.77;;;6.90;;
12296;SDS011;6211;49.124;9.152;2024-03-02T05:32:40;11.38;;;7.05;;
12296;SDS011;6211;49.124;9.152;2024-03-02T05:35:07;16.13;;;7.78;;
12296;SDS011;6211;49.124;9.152;2024-03-02T05:37:36;9.35;;;5.93;;
12296;SDS011;6211;49.124;9.152;2024-03-02T05:40:04;10.90;;;6.10;;
12296;SDS011;6211;49.124;9.152;2024-03-02T05:42:32;13.57;;;7.00;;
12296;SDS011;6211;49.124;9.152;2024-03-02T05:44:59;14.20;;;7.07;;
12296;SDS011;6211;49.124;9.152;2024-03-02T05:47:26;12.52;;;7.18;;
12296;SDS011;6211;49.124;9.152;2024-03-02T05:49:55;12.77;;;7.47;;
12296;SDS011;6211;49.124;9.152;2024-03-02T05:52:22;12.90;;;6.38;;
12296;SDS011;6211;49.124;9.152;2024-03-02T05:54:49;12.48;;;6.60;;
12296;SDS011;6211;49.124;9.152;2024-03-02T05:57:16;13.90;;;7.72;;
12296;SDS011;6211;49.124;9.152;2024-03-02T05:59:56;11.75;;;6.80;;
12296;SDS011;6211;49.124;9.152;2024-03-02T06:02:24;14.18;;;7.10;;
12296;SDS011;6211;49.124;9.152;2024-03-02T06:04:53;12.35;;;7.30;;
12296;SDS011;6211;49.124;9.152;2024-03-02T06:07:22;14.57;;;7.57;;
12296;SDS011;6211;49.124;9.152;2024-03-02T06:09:49;12.90;;;8.63;;
12296;SDS011;6211;49.124;9.152;2024-03-02T06:12:17;17.90;;;7.95;;
12296;SDS011;6211;49.124;9.152;2024-03-02T06:14:44;20.45;;;8.48;;
12296;SDS011;6211;49.124;9.152;2024-03-02T06:17:12;15.13;;;6.90;;
12296;SDS011;6211;49.124;9.152;2024-03-02T06:19:39;13.30;;;7.93;;
12296;SDS011;6211;49.124;9.152;2024-03-02T06:22:06;15.63;;;8.05;;
12296;SDS011;6211;49.124;9.152;2024-03-02T06:24:36;12.68;;;7.03;;
12296;SDS011;6211;49.124;9.152;2024-03-02T06:27:04;16.90;;;8.82;;
12296;SDS011;6211;49.124;9.152;2024-03-02T06:29:32;14.07;;;7.70;;
12296;SDS011;6211;49.124;9.152;2024-03-02T06:31:59;13.50;;;7.90;;
12296;SDS011;6211;49.124;9.152;2024-03-02T06:34:27;12.88;;;7.22;;
12296;SDS011;6211;49.124;9.152;2024-03-02T06:36:54;13.25;;;7.20;;
12296;SDS011;6211;49.124;9.152;2024-03-02T06:39:21;11.48;;;6.50;;
12296;SDS011;6211;49.124;9.152;2024-03-02T06:41:49;11.10;;;6.70;;
12296;SDS011;6211;49.124;9.152;2024-03-02T06:44:16;12.43;;;7.03;;
12296;SDS011;6211;49.124;9.152;2024-03-02T06:46:43;11.98;;;7.35;;
12296;SDS011;6211;49.124;9.152;2024-03-02T06:49:10;11.70;;;6.65;;
12296;SDS011;6211;49.124;9.152;2024-03-02T06:51:38;13.60;;;5.93;;
12296;SDS011;6211;49.124;9.152;2024-03-02T06:54:07;11.45;;;6.40;;
12296;SDS011;6211;49.124;9.152;2024-03-02T06:56:34;13.68;;;7.40;;
12296;SDS011;6211;49.124;9.152;2024-03-02T06:59:03;14.07;;;7.05;;
12296;SDS011;6211;49.124;9.152;2024-03-02T07:01:31;10.35;;;5.50;;
12296;SDS011;6211;49.124;9.152;2024-03-02T07:03:58;10.30;;;6.78;;
12296;SDS011;6211;49.124;9.152;2024-03-02T07:06:25;14.45;;;7.47;;
12296;SDS011;6211;49.124;9.152;2024-03-02T07:08:52;13.40;;;7.47;;
12296;SDS011;6211;49.124;9.152;2024-03-02T07:11:19;13.07;;;7.65;;
12296;SDS011;6211;49.124;9.152;2024-03-02T07:13:46;9.15;;;6.03;;
12296;SDS011;6211;49.124;9.152;2024-03-02T07:16:15;10.82;;;6.93;;
12296;SDS011;6211;49.124;9.152;2024-03-02T07:18:55;11.85;;;5.85;;
12296;SDS011;6211;49.124;9.152;2024-03-02T07:21:22;11.85;;;6.20;;
12296;SDS011;6211;49.124;9.152;2024-03-02T07:23:49;13.25;;;6.30;;
12296;SDS011;6211;49.124;9.152;2024-03-02T07:26:17;13.25;;;6.60;;
12296;SDS011;6211;49.124;9.152;2024-03-02T07:28:44;11.55;;;6.70;;
12296;SDS011;6211;49.124;9.152;2024-03-02T07:31:12;11.63;;;6.85;;
12296;SDS011;6211;49.124;9.152;2024-03-02T07:33:43;12.10;;;6.82;;
12296;SDS011;6211;49.124;9.152;2024-03-02T07:36:10;10.27;;;6.28;;
12296;SDS011;6211;49.124;9.152;2024-03-02T07:38:37;12.50;;;6.32;;
12296;SDS011;6211;49.124;9.152;2024-03-02T07:41:05;12.48;;;6.38;;
12296;SDS011;6211;49.124;9.152;2024-03-02T07:43:32;11.95;;;5.95;;
12296;SDS011;6211;49.124;9.152;2024-03-02T07:45:59;9.75;;;6.13;;
12296;SDS011;6211;49.124;9.152;2024-03-02T07:48:28;9.27;;;5.45;;
12296;SDS011;6211;49.124;9.152;2024-03-02T07:50:57;10.43;;;6.10;;
12296;SDS011;6211;49.124;9.152;2024-03-02T07:53:24;10.85;;;6.65;;
12296;SDS011;6211;49.124;9.152;2024-03-02T07:55:51;11.45;;;6.50;;
12296;SDS011;6211;49.124;9.152;2024-03-02T07:58:18;13.43;;;6.35;;
12296;SDS011;6211;49.124;9.152;2024-03-02T08:00:46;12.20;;;5.70;;
12296;SDS011;6211;49.124;9.152;2024-03-02T08:03:13;10.60;;;5.72;;
12296;SDS011;6211;49.124;9.152;2024-03-02T08:05:41;12.52;;;7.13;;
12296;SDS011;6211;49.124;9.152;2024-03-02T08:08:09;8.77;;;6.13;;
12296;SDS011;6211;49.124;9.152;2024-03-02T08:10:36;9.63;;;6.07;;
12296;SDS011;6211;49.124;9.152;2024-03-02T08:13:04;9.18;;;6.30;;
12296;SDS011;6211;49.124;9.152;2024-03-02T08:15:31;12.68;;;5.25;;
12296;SDS011;6211;49.124;9.152;2024-03-02T08:17:58;9.82;;;5.47;;
12296;SDS011;6211;49.124;9.152;2024-03-02T08:20:25;12.07;;;5.90;;
12296;SDS011;6211;49.124;9.152;2024-03-02T08:22:52;10.15;;;5.28;;
12296;SDS011;6211;49.124;9.152;2024-03-02T08:25:21;9.77;;;5.72;;
12296;SDS011;6211;49.124;9.152;2024-03-02T08:27:48;9.73;;;5.57;;
12296;SDS011;6211;49.124;9.152;2024-03-02T08:30:15;8.50;;;5.68;;
12296;SDS011;6211;49.124;9.152;2024-03-02T08:32:43;10.88;;;6.05;;
12296;SDS011;6211;49.124;9.152;2024-03-02T08:35:12;8.07;;;5.38;;
12296;SDS011;6211;49.124;9.152;2024-03-02T08:37:39;7.65;;;4.97;;
12296;SDS011;6211;49.124;9.152;2024-03-02T08:40:06;10.90;;;5.75;;
12296;SDS011;6211;49.124;9.152;2024-03-02T08:42:35;8.07;;;5.00;;
12296;SDS011;6211;49.124;9.152;2024-03-02T08:45:02;11.68;;;5.80;;
12296;SDS011;6211;49.124;9.152;2024-03-02T08:47:29;9.73;;;6.25;;
12296;SDS011;6211;49.124;9.152;2024-03-02T08:49:57;11.63;;;5.70;;
12296;SDS011;6211;49.124;9.152;2024-03-02T08:52:24;6.68;;;4.82;;
12296;SDS011;6211;49.124;9.152;2024-03-02T08:54:52;9.65;;;5.97;;
12296;SDS011;6211;49.124;9.152;2024-03-02T08:57:19;8.68;;;5.72;;
12296;SDS011;6211;49.124;9.152;2024-03-02T08:59:47;10.20;;;5.85;;
12296;SDS011;6211;49.124;9.152;2024-03-02T09:02:14;9.15;;;5.82;;
12296;SDS011;6211;49.124;9.152;2024-03-02T09:04:41;7.72;;;5.10;;
12296;SDS011;6211;49.124;9.152;2024-03-02T09:07:08;7.53;;;5.15;;
12296;SDS011;6211;49.124;9.152;2024-03-02T09:09:36;9.10;;;4.85;;
12296;SDS011;6211;49.124;9.152;2024-03-02T09:12:04;8.57;;;4.72;;
12296;SDS011;6211;49.124;9.152;2024-03-02T09:14:32;7.45;;;5.00;;
12296;SDS011;6211;49.124;9.152;2024-03-02T09:17:00;8.98;;;4.15;;
12296;SDS011;6211;49.124;9.152;2024-03-02T09:19:28;5.95;;;4.18;;
12296;SDS011;6211;49.124;9.152;2024-03-02T09:21:55;5.47;;;3.45;;
12296;SDS011;6211;49.124;9.152;2024-03-02T09:24:23;6.20;;;3.67;;
12296;SDS011;6211;49.124;9.152;2024-03-02T09:26:50;6.82;;;3.97;;
12296;SDS011;6211;49.124;9.152;2024-03-02T09:29:18;4.72;;;3.38;;
12296;SDS011;6211;49.124;9.152;2024-03-02T09:31:45;8.60;;;3.55;;
12296;SDS011;6211;49.124;9.152;2024-03-02T09:34:14;5.47;;;3.55;;
12296;SDS011;6211;49.124;9.152;2024-03-02T09:36:41;5.00;;;3.03;;
12296;SDS011;6211;49.124;9.152;2024-03-02T09:39:08;5.75;;;2.95;;
12296;SDS011;6211;49.124;9.152;2024-03-02T09:41:35;4.00;;;2.80;;
12296;SDS011;6211;49.124;9.152;2024-03-02T09:44:03;4.85;;;3.08;;
12296;SDS011;6211;49.124;9.152;2024-03-02T09:46:31;4.03;;;2.95;;
12296;SDS011;6211;49.124;9.152;2024-03-02T09:48:58;3.20;;;2.35;;
12296;SDS011;6211;49.124;9.152;2024-03-02T09:51:27;4.45;;;3.05;;
12296;SDS011;6211;49.124;9.152;2024-03-02T09:53:54;3.33;;;2.88;;
12296;SDS011;6211;49.124;9.152;2024-03-02T09:56:22;3.88;;;2.97;;
12296;SDS011;6211;49.124;9.152;2024-03-02T09:58:49;3.50;;;2.58;;
12296;SDS011;6211;49.124;9.152;2024-03-02T10:01:16;3.00;;;2.65;;
12296;SDS011;6211;49.124;9.152;2024-03-02T10:03:44;2.45;;;2.25;;
12296;SDS011;6211;49.124;9.152;2024-03-02T10:06:21;4.97;;;3.08;;
12296;SDS011;6211;49.124;9.152;2024-03-02T10:08:50;3.63;;;2.72;;
12296;SDS011;6211;49.124;9.152;2024-03-02T10:11:27;3.78;;;2.92;;
12296;SDS011;6211;49.124;9.152;2024-03-02T10:16:41;4.90;;;3.10;;
12296;SDS011;6211;49.124;9.152;2024-03-02T10:19:15;5.10;;;2.85;;
12296;SDS011;6211;49.124;9.152;2024-03-02T10:21:42;3.33;;;2.80;;
12296;SDS011;6211;49.124;9.152;2024-03-02T10:24:11;4.43;;;2.63;;
12296;SDS011;6211;49.124;9.152;2024-03-02T10:26:38;5.00;;;3.10;;
12296;SDS011;6211;49.124;9.152;2024-03-02T10:29:06;3.60;;;2.67;;
12296;SDS011;6211;49.124;9.152;2024-03-02T10:31:35;4.10;;;2.85;;
12296;SDS011;6211;49.124;9.152;2024-03-02T10:34:03;6.85;;;2.75;;
12296;SDS011;6211;49.124;9.152;2024-03-02T10:36:30;3.80;;;2.97;;
12296;SDS011;6211;49.124;9.152;2024-03-02T10:38:57;3.63;;;2.63;;
12296;SDS011;6211;49.124;9.152;2024-03-02T10:41:27;3.50;;;2.83;;
12296;SDS011;6211;49.124;9.152;2024-03-02T10:43:55;5.25;;;3.17;;
12296;SDS011;6211;49.124;9.152;2024-03-02T10:46:25;4.82;;;2.67;;
12296;SDS011;6211;49.124;9.152;2024-03-02T10:48:55;3.55;;;2.85;;
12296;SDS011;6211;49.124;9.152;2024-03-02T10:51:23;4.32;;;2.95;;
12296;SDS011;6211;49.124;9.152;2024-03-02T10:53:51;3.70;;;2.95;;
12296;SDS011;6211;49.124;9.152;2024-03-02T10:56:20;3.80;;;2.53;;
12296;SDS011;6211;49.124;9.152;2024-03-02T10:58:50;3.85;;;3.40;;
12296;SDS011;6211;49.124;9.152;2024-03-02T11:01:17;3.72;;;3.30;;
12296;SDS011;6211;49.124;9.152;2024-03-02T11:03:45;4.43;;;2.92;;
12296;SDS011;6211;49.124;9.152;2024-03-02T11:06:12;3.47;;;2.53;;
12296;SDS011;6211;49.124;9.152;2024-03-02T11:08:40;3.60;;;2.58;;
12296;SDS011;6211;49.124;9.152;2024-03-02T11:11:14;4.32;;;2.70;;
12296;SDS011;6211;49.124;9.152;2024-03-02T11:13:42;4.57;;;2.75;;
12296;SDS011;6211;49.124;9.152;2024-03-02T11:16:16;3.72;;;2.30;;
12296;SDS011;6211;49.124;9.152;2024-03-02T11:18:47;3.63;;;2.28;;
12296;SDS011;6211;49.124;9.152;2024-03-02T11:21:14;3.70;;;2.40;;
12296;SDS011;6211;49.124;9.152;2024-03-02T11:23:42;3.65;;;2.40;;
12296;SDS011;6211;49.124;9.152;2024-03-02T11:26:18;3.63;;;2.50;;
12296;SDS011;6211;49.124;9.152;2024-03-02T11:28:46;3.95;;;2.40;;
12296;SDS011;6211;49.124;9.152;2024-03-02T11:31:13;2.75;;;2.38;;
12296;SDS011;6211;49.124;9.152;2024-03-02T11:33:41;4.80;;;2.40;;
12296;SDS011;6211;49.124;9.152;2024-03-02T11:36:09;7.72;;;2.65;;
12296;SDS011;6211;49.124;9.152;2024-03-02T11:38:36;3.13;;;2.40;;
12296;SDS011;6211;49.124;9.152;2024-03-02T11:41:05;3.13;;;2.05;;
12296;SDS011;6211;49.124;9.152;2024-03-02T11:43:33;2.47;;;1.90;;
12296;SDS011;6211;49.124;9.152;2024-03-02T11:46:04;2.90;;;2.15;;
12296;SDS011;6211;49.124;9.152;2024-03-02T11:48:33;2.58;;;2.28;;
12296;SDS011;6211;49.124;9.152;2024-03-02T11:51:03;2.55;;;2.00;;
12296;SDS011;6211;49.124;9.152;2024-03-02T11:53:30;2.67;;;2.20;;
12296;SDS011;6211;49.124;9.152;2024-03-02T11:55:58;2.17;;;1.70;;
12296;SDS011;6211;49.124;9.152;2024-03-02T11:58:26;2.08;;;1.70;;
12296;SDS011;6211;49.124;9.152;2024-03-02T12:00:54;2.22;;;1.55;;
12296;SDS011;6211;49.124;9.152;2024-03-02T12:03:22;1.80;;;1.50;;
12296;SDS011;6211;49.124;9.152;2024-03-02T12:05:50;2.08;;;1.58;;
12296;SDS011;6211;49.124;9.152;2024-03-02T12:08:19;1.35;;;1.25;;
12296;SDS011;6211;49.124;9.152;2024-03-02T12:10:55;2.47;;;1.20;;
12296;SDS011;6211;49.124;9.152;2024-03-02T12:13:24;1.55;;;1.30;;
12296;SDS011;6211;49.124;9.152;2024-03-02T12:15:52;1.52;;;1.13;;
12296;SDS011;6211;49.124;9.152;2024-03-02T12:18:21;2.22;;;1.02;;
12296;SDS011;6211;49.124;9.152;2024-03-02T12:20:48;2.65;;;1.10;;
12296;SDS011;6211;49.124;9.152;2024-03-02T12:23:18;1.17;;;1.08;;
12296;SDS011;6211;49.124;9.152;2024-03-02T12:25:45;1.55;;;1.35;;
12296;SDS011;6211;49.124;9.152;2024-03-02T12:28:13;1.20;;;1.10;;
12296;SDS011;6211;49.124;9.152;2024-03-02T12:30:40;2.40;;;1.13;;
12296;SDS011;6211;49.124;9.152;2024-03-02T12:33:07;1.17;;;1.08;;
12296;SDS011;6211;49.124;9.152;2024-03-02T12:35:35;1.13;;;1.00;;
12296;SDS011;6211;49.124;9.152;2024-03-02T12:38:03;1.30;;;1.20;;
12296;SDS011;6211;49.124;9.152;2024-03-02T12:40:32;1.60;;;0.88;;
12296;SDS011;6211;49.124;9.152;2024-03-02T12:42:59;1.13;;;0.90;;
12296;SDS011;6211;49.124;9.152;2024-03-02T12:45:26;1.40;;;1.00;;
12296;SDS011;6211;49.124;9.152;2024-03-02T12:47:53;0.88;;;0.77;;
12296;SDS011;6211;49.124;9.152;2024-03-02T12:50:21;0.70;;;0.70;;
12296;SDS011;6211;49.124;9.152;2024-03-02T12:52:51;0.70;;;0.70;;
12296;SDS011;6211;49.124;9.152;2024-03-02T12:55:19;2.22;;;0.73;;
12296;SDS011;6211;49.124;9.152;2024-03-02T12:57:50;2.55;;;0.80;;
12296;SDS011;6211;49.124;9.152;2024-03-02T13:00:18;0.70;;;0.70;;
12296;SDS011;6211;49.124;9.152;2024-03-02T13:02:45;0.60;;;0.60;;
12296;SDS011;6211;49.124;9.152;2024-03-02T13:05:13;0.65;;;0.65;;
12296;SDS011;6211;49.124;9.152;2024-03-02T13:07:40;1.15;;;0.50;;
12296;SDS011;6211;49.124;9.152;2024-03-02T13:10:07;0.50;;;0.50;;
12296;SDS011;6211;49.124;9.152;2024-03-02T13:12:35;0.40;;;0.40;;
12296;SDS011;6211;49.124;9.152;2024-03-02T13:15:04;0.45;;;0.45;;
12296;SDS011;6211;49.124;9.152;2024-03-02T13:17:31;0.10;;;0.10;;
12296;SDS011;6211;49.124;9.152;2024-03-02T13:20:01;0.30;;;0.30;;
12296;SDS011;6211;49.124;9.152;2024-03-02T13:22:29;0.55;;;0.50;;
12296;SDS011;6211;49.124;9.152;2024-03-02T13:24:56;0.30;;;0.20;;
12296;SDS011;6211;49.124;9.152;2024-03-02T13:27:25;0.30;;;0.28;;
12296;SDS011;6211;49.124;9.152;2024-03-02T13:29:52;0.40;;;0.40;;
12296;SDS011;6211;49.124;9.152;2024-03-02T13:32:20;0.52;;;0.52;;
12296;SDS011;6211;49.124;9.152;2024-03-02T13:34:49;1.35;;;0.40;;
12296;SDS011;6211;49.124;9.152;2024-03-02T13:37:16;0.40;;;0.40;;
12296;SDS011;6211;49.124;9.152;2024-03-02T13:39:43;0.50;;;0.50;;
12296;SDS011;6211;49.124;9.152;2024-03-02T13:42:10;3.10;;;0.60;;
12296;SDS011;6211;49.124;9.152;2024-03-02T13:44:39;1.92;;;0.50;;
12296;SDS011;6211;49.124;9.152;2024-03-02T13:47:07;2.80;;;0.47;;
12296;SDS011;6211;49.124;9.152;2024-03-02T13:49:35;3.13;;;0.30;;
12296;SDS011;6211;49.124;9.152;2024-03-02T13:52:04;0.40;;;0.40;;
12296;SDS011;6211;49.124;9.152;2024-03-02T13:54:39;0.70;;;0.70;;
12296;SDS011;6211;49.124;9.152;2024-03-02T13:57:07;0.57;;;0.57;;
12296;SDS011;6211;49.124;9.152;2024-03-02T13:59:34;0.60;;;0.60;;
12296;SDS011;6211;49.124;9.152;2024-03-02T14:02:01;0.70;;;0.70;;
12296;SDS011;6211;49.124;9.152;2024-03-02T14:04:29;0.35;;;0.35;;
12296;SDS011;6211;49.124;9.152;2024-03-02T14:06:58;0.50;;;0.50;;
12296;SDS011;6211;49.124;9.152;2024-03-02T14:09:25;0.98;;;0.70;;
12296;SDS011;6211;49.124;9.152;2024-03-02T14:11:53;0.60;;;0.60;;
12296;SDS011;6211;49.124;9.152;2024-03-02T14:14:20;1.00;;;0.50;;
12296;SDS011;6211;49.124;9.152;2024-03-02T14:16:47;1.00;;;0.60;;
12296;SDS011;6211;49.124;9.152;2024-03-02T14:19:15;0.57;;;0.57;;
12296;SDS011;6211;49.124;9.152;2024-03-02T14:21:42;0.57;;;0.57;;
12296;SDS011;6211;49.124;9.152;2024-03-02T14:24:10;0.50;;;0.50;;
12296;SDS011;6211;49.124;9.152;2024-03-02T14:26:37;0.47;;;0.47;;
12296;SDS011;6211;49.124;9.152;2024-03-02T14:29:05;2.33;;;0.70;;
12296;SDS011;6211;49.124;9.152;2024-03-02T14:31:33;0.50;;;0.50;;
12296;SDS011;6211;49.124;9.152;2024-03-02T14:34:00;0.75;;;0.75;;
12296;SDS011;6211;49.124;9.152;2024-03-02T14:36:27;0.52;;;0.52;;
12296;SDS011;6211;49.124;9.152;2024-03-02T14:38:55;0.50;;;0.50;;
12296;SDS011;6211;49.124;9.152;2024-03-02T14:41:23;0.50;;;0.50;;
12296;SDS011;6211;49.124;9.152;2024-03-02T14:43:51;0.65;;;0.65;;
12296;SDS011;6211;49.124;9.152;2024-03-02T14:46:18;0.55;;;0.55;;
12296;SDS011;6211;49.124;9.152;2024-03-02T14:48:45;1.13;;;0.50;;
12296;SDS011;6211;49.124;9.152;2024-03-02T14:51:13;1.33;;;0.70;;
12296;SDS011;6211;49.124;9.152;2024-03-02T14:53:40;0.90;;;0.90;;
12296;SDS011;6211;49.124;9.152;2024-03-02T14:56:07;0.43;;;0.43;;
12296;SDS011;6211;49.124;9.152;2024-03-02T14:58:36;0.70;;;0.70;;
12296;SDS011;6211;49.124;9.152;2024-03-02T15:01:03;0.50;;;0.50;;